Terminal Aerodrome Forecast
Issued by NWS

Home | Current Version | Previous Version | Text Only | Print | Product List | Glossary On
Versions: 1 2 3 4 5 6 7 8 9 10 11 12 13
000
FTUS42 KTBW 271100
TAFPGD
TAF
KPGD 271130Z 2712/2812 35006KT P6SM SKC
     FM271700 30012G18KT P6SM FEW040
     FM272100 28016G26KT P6SM FEW040
     FM280200 30010KT P6SM SKC
     FM280700 35006KT P6SM SKC=

USA.gov is the U.S. government's official web portal to all federal, state and local government web resources and services.